Time;durP1;ratioP1;P1;durP2;ratioP2;P2;SDS_P1;SDS_P2;PMS_P1;PMS_P2;Temp;Humidity;BMP_temperature;BMP_pressure;BME280_temperature;BME280_humidity;BME280_pressure;Samples;Min_cycle;Max_cycle;Signal;HPM_P1;HPM_P2
2022/02/22 00:00:15;;;;;;;4.35;1.23;;;;;;;1.25;100.00;92979.81;2090596;28;20179;-84
2022/02/22 00:01:16;;;;;;;8.90;1.48;;;;;;;1.24;100.00;92977.56;2098849;28;20028;-84
2022/02/22 00:02:17;;;;;;;6.10;1.23;;;;;;;1.31;100.00;92974.97;2106716;28;20800;-83
2022/02/22 00:03:18;;;;;;;7.63;1.73;;;;;;;1.18;100.00;92978.97;2098290;28;20455;-84
2022/02/22 00:04:20;;;;;;;6.72;1.60;;;;;;;1.32;100.00;92996.78;2106686;28;20024;-84
2022/02/22 00:05:21;;;;;;;8.93;1.48;;;;;;;1.36;100.00;92984.44;2106674;28;20023;-84
2022/02/22 00:06:22;;;;;;;7.60;1.88;;;;;;;1.35;100.00;92980.28;2099897;28;20424;-85
2022/02/22 00:07:22;;;;;;;7.03;1.60;;;;;;;1.38;100.00;92979.56;2098229;28;20032;-84
2022/02/22 00:08:23;;;;;;;8.30;1.73;;;;;;;1.31;100.00;92972.34;2090145;28;20025;-84
2022/02/22 00:09:24;;;;;;;8.23;1.88;;;;;;;1.28;100.00;92978.34;2089910;28;20861;-84
2022/02/22 00:10:25;;;;;;;10.18;2.25;;;;;;;1.32;100.00;92973.09;2089485;28;20029;-84
2022/02/22 00:11:27;;;;;;;9.05;1.48;;;;;;;1.16;100.00;92975.94;2097187;28;20044;-84
2022/02/22 00:12:28;;;;;;;6.60;1.30;;;;;;;1.12;100.00;92981.16;2097610;28;20029;-84
2022/02/22 00:13:29;;;;;;;8.82;1.60;;;;;;;1.11;100.00;92977.03;2097624;28;20030;-83
2022/02/22 00:14:30;;;;;;;6.70;1.83;;;;;;;1.17;100.00;92991.38;2105460;28;20115;-85
2022/02/22 00:15:31;;;;;;;9.20;2.00;;;;;;;1.23;100.00;92981.31;2089557;28;20072;-84
2022/02/22 00:16:32;;;;;;;9.75;1.58;;;;;;;1.34;100.00;92990.06;2097414;28;20024;-83
2022/02/22 00:17:33;;;;;;;3.30;1.40;;;;;;;1.33;100.00;92988.56;2098243;28;20033;-84
2022/02/22 00:18:34;;;;;;;8.70;1.55;;;;;;;1.38;100.00;92979.56;2098065;28;20508;-84
2022/02/22 00:19:36;;;;;;;10.63;1.70;;;;;;;1.46;100.00;92992.44;2097874;28;20028;-84
2022/02/22 00:20:37;;;;;;;9.75;1.90;;;;;;;1.44;100.00;92992.03;2098262;28;20020;-84
2022/02/22 00:21:38;;;;;;;4.85;1.48;;;;;;;1.47;100.00;92993.97;2097687;28;20107;-84
2022/02/22 00:22:39;;;;;;;5.53;1.65;;;;;;;1.29;100.00;92993.03;2097102;28;20055;-84
2022/02/22 00:23:40;;;;;;;4.90;2.17;;;;;;;1.33;100.00;93004.34;2097215;28;20025;-85
2022/02/22 00:24:41;;;;;;;9.35;2.05;;;;;;;1.36;100.00;92993.09;2096415;28;20141;-84
2022/02/22 00:25:42;;;;;;;7.85;1.90;;;;;;;1.36;100.00;92997.59;2106438;28;20074;-84
2022/02/22 00:26:44;;;;;;;2.90;1.65;;;;;;;1.49;100.00;93002.28;2098193;28;20036;-84
2022/02/22 00:27:45;;;;;;;10.35;1.90;;;;;;;1.25;100.00;92992.22;2089929;28;20035;-84
2022/02/22 00:28:46;;;;;;;11.80;1.73;;;;;;;1.25;100.00;93000.13;2089915;28;20036;-84
2022/02/22 00:29:47;;;;;;;4.28;1.60;;;;;;;1.18;100.00;93005.28;2089846;28;20025;-84
2022/02/22 00:30:49;;;;;;;9.77;1.90;;;;;;;1.19;100.00;92993.66;2106336;28;20156;-84
2022/02/22 00:31:50;;;;;;;9.65;1.63;;;;;;;1.17;100.00;93006.41;2098043;28;20365;-84
2022/02/22 00:32:52;;;;;;;11.57;2.00;;;;;;;1.12;100.00;92991.69;2097970;28;20033;-85
2022/02/22 00:33:53;;;;;;;8.15;1.70;;;;;;;1.13;100.00;93016.16;2098268;28;20028;-84
2022/02/22 00:34:54;;;;;;;6.75;1.90;;;;;;;1.20;100.00;93008.34;2097991;28;20505;-84
2022/02/22 00:35:56;;;;;;;7.75;1.75;;;;;;;1.38;100.00;93006.66;2089895;28;20029;-84
2022/02/22 00:36:57;;;;;;;5.53;1.38;;;;;;;1.54;100.00;93005.69;2096359;28;20175;-84
2022/02/22 00:37:58;;;;;;;12.98;1.88;;;;;;;1.16;100.00;93012.81;2089708;28;20188;-84
2022/02/22 00:38:59;;;;;;;7.72;1.70;;;;;;;1.38;100.00;93004.03;2103691;28;20020;-84
2022/02/22 00:40:09;;;;;;;8.02;1.60;;;;;;;1.41;100.00;93008.59;2106501;28;20438;-84
2022/02/22 00:41:10;;;;;;;7.63;1.58;;;;;;;1.48;100.00;93005.25;2099406;28;20039;-85
2022/02/22 00:42:11;;;;;;;5.05;2.20;;;;;;;1.42;100.00;93001.44;2089449;28;20052;-84
2022/02/22 00:43:12;;;;;;;6.13;2.00;;;;;;;1.35;100.00;93002.09;2089907;28;20162;-84
2022/02/22 00:44:12;;;;;;;12.50;2.03;;;;;;;1.36;100.00;93010.75;2089605;28;20028;-84
2022/02/22 00:45:13;;;;;;;6.53;2.10;;;;;;;1.36;100.00;93000.22;2097825;28;20020;-84
2022/02/22 00:46:14;;;;;;;4.68;1.45;;;;;;;1.46;100.00;93012.75;2114670;28;20031;-84
2022/02/22 00:47:15;;;;;;;5.45;1.67;;;;;;;1.42;100.00;93011.97;2106302;28;20372;-84
2022/02/22 00:48:16;;;;;;;2.83;1.17;;;;;;;1.37;100.00;93007.78;2090602;28;20051;-84
2022/02/22 00:49:19;;;;;;;7.60;1.65;;;;;;;1.36;100.00;93019.44;2097995;28;20099;-83
2022/02/22 00:50:20;;;;;;;3.55;1.50;;;;;;;1.38;100.00;93019.06;2097863;28;20409;-84
2022/02/22 00:51:21;;;;;;;5.97;1.77;;;;;;;1.25;100.00;93027.19;2080146;28;20035;-83
2022/02/22 00:52:22;;;;;;;3.30;1.42;;;;;;;1.28;100.00;93032.88;2089727;28;20021;-84
2022/02/22 00:53:23;;;;;;;4.45;1.60;;;;;;;1.43;100.00;93030.03;2099088;28;20107;-84
2022/02/22 00:54:24;;;;;;;4.72;1.15;;;;;;;1.25;100.00;93056.16;2097825;28;20021;-85
2022/02/22 00:55:25;;;;;;;2.80;1.30;;;;;;;1.54;100.00;93042.56;2106175;28;20031;-85
2022/02/22 00:56:26;;;;;;;8.02;1.67;;;;;;;1.50;100.00;93038.03;2097650;28;20016;-84
2022/02/22 00:57:27;;;;;;;4.25;1.33;;;;;;;1.33;100.00;93038.59;2089533;28;20041;-85
2022/02/22 00:58:28;;;;;;;7.50;1.73;;;;;;;1.24;100.00;93035.47;2089767;28;20347;-85
2022/02/22 00:59:29;;;;;;;7.65;1.88;;;;;;;1.27;100.00;93024.19;2092201;28;20119;-84
2022/02/22 01:00:30;;;;;;;7.32;1.95;;;;;;;1.34;100.00;93032.19;2097731;28;20044;-84
2022/02/22 01:01:31;;;;;;;7.82;1.30;;;;;;;1.18;100.00;93045.53;2098036;28;20021;-85
2022/02/22 01:02:32;;;;;;;8.32;1.60;;;;;;;1.20;100.00;93056.47;2097893;28;20050;-84
2022/02/22 01:03:33;;;;;;;7.20;1.65;;;;;;;1.33;100.00;93030.69;2089596;28;20028;-85
2022/02/22 01:04:34;;;;;;;8.85;1.63;;;;;;;1.14;100.00;93043.97;2089519;28;20033;-83
2022/02/22 01:05:35;;;;;;;11.38;1.50;;;;;;;1.20;100.00;93040.69;2097775;28;20056;-84
2022/02/22 01:06:36;;;;;;;5.60;1.50;;;;;;;1.31;100.00;93038.16;2097666;28;20052;-84
2022/02/22 01:07:37;;;;;;;2.05;1.00;;;;;;;1.39;100.00;93041.66;2097984;28;20070;-84
2022/02/22 01:08:39;;;;;;;7.50;1.40;;;;;;;1.30;100.00;93056.97;2089646;28;20028;-85
2022/02/22 01:09:40;;;;;;;5.50;1.23;;;;;;;1.41;100.00;93042.81;2089877;28;20059;-83
2022/02/22 01:10:41;;;;;;;5.90;1.40;;;;;;;1.42;100.00;93051.47;2097913;28;20088;-84
2022/02/22 01:11:43;;;;;;;8.90;1.35;;;;;;;1.56;100.00;93050.88;2097505;28;20098;-84
2022/02/22 01:12:44;;;;;;;5.68;1.60;;;;;;;1.49;100.00;93057.59;2089807;28;20051;-84
2022/02/22 01:13:45;;;;;;;8.85;1.42;;;;;;;1.30;100.00;93056.97;2089488;28;20017;-83
2022/02/22 01:14:46;;;;;;;5.93;1.52;;;;;;;1.53;100.00;93062.88;2089186;28;20035;-84
2022/02/22 01:15:48;;;;;;;7.45;1.58;;;;;;;1.48;100.00;93061.31;2089490;28;20418;-84
2022/02/22 01:16:49;;;;;;;7.32;1.30;;;;;;;1.18;100.00;93060.56;2089823;28;20029;-83
2022/02/22 01:17:50;;;;;;;6.05;1.48;;;;;;;1.24;100.00;93064.44;2089485;28;20672;-84
2022/02/22 01:18:52;;;;;;;7.70;1.42;;;;;;;1.23;100.00;93063.66;2097680;28;20063;-84
2022/02/22 01:19:53;;;;;;;6.00;1.60;;;;;;;1.31;100.00;93067.13;2089598;28;20107;-84
2022/02/22 01:21:04;;;;;;;5.40;1.40;;;;;;;1.17;100.00;93059.06;2089393;28;20032;-83
2022/02/22 01:22:05;;;;;;;8.00;1.45;;;;;;;1.25;100.00;93087.00;2100414;28;20020;-84
2022/02/22 01:23:06;;;;;;;7.00;1.52;;;;;;;1.36;100.00;93072.09;2097628;28;20025;-84
2022/02/22 01:24:08;;;;;;;5.80;1.63;;;;;;;1.21;100.00;93075.66;2097325;28;20099;-84
2022/02/22 01:25:10;;;;;;;9.25;1.52;;;;;;;1.16;100.00;93086.50;2089398;28;20025;-84
2022/02/22 01:26:11;;;;;;;3.38;1.25;;;;;;;1.26;100.00;93073.47;2081438;28;20079;-84
2022/02/22 01:27:12;;;;;;;2.33;0.82;;;;;;;1.42;100.00;93077.81;2089420;28;20025;-84
2022/02/22 01:28:13;;;;;;;6.75;1.45;;;;;;;1.18;100.00;93071.09;2097466;28;20086;-84
2022/02/22 01:29:14;;;;;;;3.65;1.00;;;;;;;1.43;100.00;93095.88;2089505;28;20024;-83
2022/02/22 01:30:15;;;;;;;6.03;1.95;;;;;;;1.23;100.00;93091.88;2081260;28;20485;-84
2022/02/22 01:31:16;;;;;;;11.20;1.92;;;;;;;1.15;100.00;93083.13;2089538;28;20024;-84
2022/02/22 01:32:17;;;;;;;6.03;1.55;;;;;;;1.16;100.00;93087.25;2089264;28;20099;-84
2022/02/22 01:33:18;;;;;;;4.72;1.38;;;;;;;1.24;100.00;93093.38;2081203;28;20382;-84
2022/02/22 01:34:19;;;;;;;2.33;0.90;;;;;;;1.24;100.00;93080.22;2092135;28;20620;-83
2022/02/22 01:35:20;;;;;;;3.90;1.27;;;;;;;1.31;100.00;93101.34;2105835;28;20485;-84
2022/02/22 01:36:22;;;;;;;1.80;0.95;;;;;;;1.44;100.00;93078.19;2106028;28;20516;-85
2022/02/22 01:37:23;;;;;;;6.07;1.70;;;;;;;1.38;100.00;93080.38;2106098;28;20027;-84
2022/02/22 01:38:24;;;;;;;6.55;1.67;;;;;;;1.49;100.00;93089.19;2089247;28;20641;-84
2022/02/22 01:39:25;;;;;;;5.85;1.30;;;;;;;1.52;100.00;93085.06;2089439;28;20028;-85
2022/02/22 01:40:27;;;;;;;8.93;1.95;;;;;;;1.51;100.00;93091.44;2089293;28;20048;-84
2022/02/22 01:41:32;;;;;;;11.02;1.60;;;;;;;1.45;100.00;93085.00;2097500;28;20020;-84
2022/02/22 01:42:33;;;;;;;6.05;1.80;;;;;;;1.57;100.00;93084.00;2104916;28;20020;-84
2022/02/22 01:43:39;;;;;;;5.38;1.35;;;;;;;1.42;100.00;93081.19;2097536;28;20028;-84
2022/02/22 01:44:40;;;;;;;9.93;1.85;;;;;;;1.30;100.00;93086.69;2089830;28;20033;-84
2022/02/22 01:45:42;;;;;;;9.55;1.42;;;;;;;1.24;100.00;93074.97;2082378;28;20054;-84
2022/02/22 01:47:04;;;;;;;6.20;1.42;;;;;;;1.19;100.00;93091.81;2097454;28;20031;-84
2022/02/22 01:48:05;;;;;;;7.78;1.77;;;;;;;1.29;100.00;93082.53;2095132;28;20028;-84
2022/02/22 01:49:06;;;;;;;8.75;1.70;;;;;;;1.39;100.00;93084.53;2105917;28;20117;-84
2022/02/22 01:50:08;;;;;;;8.98;1.70;;;;;;;1.50;100.00;93076.78;2105682;28;20023;-84
2022/02/22 01:51:09;;;;;;;5.32;1.35;;;;;;;1.30;100.00;93080.66;2097442;28;20028;-84
2022/02/22 01:52:11;;;;;;;7.22;1.92;;;;;;;1.24;100.00;93077.59;2097291;28;20111;-84
2022/02/22 01:53:12;;;;;;;9.32;2.08;;;;;;;1.33;100.00;93074.69;2097295;28;20035;-84
2022/02/22 01:54:13;;;;;;;4.00;1.50;;;;;;;1.41;100.00;93068.41;2089209;28;20024;-84
2022/02/22 01:55:14;;;;;;;8.82;1.67;;;;;;;1.43;100.00;93074.03;2089326;28;20171;-84
2022/02/22 01:56:17;;;;;;;3.60;1.13;;;;;;;1.37;100.00;93084.16;2089219;28;20844;-84
2022/02/22 01:57:18;;;;;;;5.55;1.75;;;;;;;1.36;100.00;93084.50;2089835;28;20036;-84
2022/02/22 01:58:19;;;;;;;6.85;1.40;;;;;;;1.38;100.00;93074.38;2097382;28;20021;-84
2022/02/22 01:59:21;;;;;;;7.00;1.25;;;;;;;1.37;100.00;93081.50;2097143;28;20035;-84
2022/02/22 02:00:22;;;;;;;9.55;1.70;;;;;;;1.13;100.00;93087.97;2106046;28;20461;-84
2022/02/22 02:01:23;;;;;;;8.25;1.58;;;;;;;1.12;100.00;93080.44;2105758;28;20035;-84
2022/02/22 02:02:26;;;;;;;3.50;1.35;;;;;;;1.13;100.00;93076.69;2088806;28;20079;-84
2022/02/22 02:03:28;;;;;;;10.05;1.80;;;;;;;0.97;100.00;93076.88;2097797;28;20024;-84
2022/02/22 02:04:29;;;;;;;8.57;1.67;;;;;;;1.00;100.00;93076.91;2097581;28;20020;-85
2022/02/22 02:05:30;;;;;;;8.02;1.52;;;;;;;1.03;100.00;93075.44;2097252;28;20043;-85
2022/02/22 02:06:33;;;;;;;3.38;1.50;;;;;;;0.92;100.00;93075.31;2088736;28;20024;-85
2022/02/22 02:07:34;;;;;;;6.15;1.42;;;;;;;0.80;100.00;93080.00;2097501;28;20024;-85
2022/02/22 02:08:35;;;;;;;6.45;1.25;;;;;;;0.81;100.00;93084.91;2097194;28;20024;-85
2022/02/22 02:11:26;;;;;;;;;;;;;;;0.84;100.00;93080.81;2148414;27;20113;-85
2022/02/22 02:12:27;;;;;;;5.13;1.25;;;;;;;0.98;100.00;93075.75;2130069;27;19915;-84
2022/02/22 02:13:28;;;;;;;3.75;1.40;;;;;;;0.83;100.00;93080.03;2113109;27;20028;-85
2022/02/22 02:14:29;;;;;;;6.88;1.42;;;;;;;0.85;100.00;93077.06;2130055;27;20047;-84
2022/02/22 02:15:30;;;;;;;4.65;1.00;;;;;;;0.82;100.00;93075.13;2138512;27;20018;-84
2022/02/22 02:16:31;;;;;;;7.90;2.03;;;;;;;0.84;100.00;93078.19;2121244;27;20031;-85
2022/02/22 02:17:34;;;;;;;6.30;1.73;;;;;;;1.03;100.00;93079.94;2121444;28;20164;-85
2022/02/22 02:18:36;;;;;;;9.02;2.35;;;;;;;1.03;100.00;93079.94;2105221;28;20020;-84
2022/02/22 02:19:40;;;;;;;8.45;1.75;;;;;;;1.03;100.00;93082.56;2113042;27;20043;-84
2022/02/22 02:20:41;;;;;;;9.27;1.70;;;;;;;1.13;100.00;93076.69;2121738;27;20027;-85
2022/02/22 02:21:43;;;;;;;8.07;2.05;;;;;;;1.12;100.00;93083.81;2112686;28;20020;-85
2022/02/22 02:22:44;;;;;;;8.30;1.27;;;;;;;1.31;100.00;93077.66;2105023;28;20027;-84
2022/02/22 02:23:45;;;;;;;8.55;1.58;;;;;;;1.09;100.00;93076.63;2109159;27;20515;-85
2022/02/22 02:24:46;;;;;;;8.85;1.73;;;;;;;1.02;100.00;93078.44;2121367;27;20072;-84
2022/02/22 02:25:47;;;;;;;8.98;2.13;;;;;;;0.92;100.00;93075.31;2112932;27;20799;-84
2022/02/22 02:26:50;;;;;;;5.65;1.30;;;;;;;1.09;100.00;93089.03;2115904;28;20032;-85
2022/02/22 02:27:51;;;;;;;7.95;1.80;;;;;;;1.04;100.00;93089.34;2105091;28;20063;-85
2022/02/22 02:28:52;;;;;;;3.85;1.67;;;;;;;1.16;100.00;93097.03;2112894;28;20024;-85
2022/02/22 02:29:55;;;;;;;4.82;1.42;;;;;;;1.12;100.00;93086.47;2121109;27;20034;-85
2022/02/22 02:30:56;;;;;;;5.63;1.60;;;;;;;1.08;100.00;93092.78;2113068;28;20023;-85
2022/02/22 02:31:57;;;;;;;8.80;1.60;;;;;;;1.14;100.00;93094.78;2104328;28;20388;-84
2022/02/22 02:32:58;;;;;;;6.45;1.70;;;;;;;1.16;100.00;93094.41;2121444;27;20486;-85
2022/02/22 02:34:01;;;;;;;11.20;2.22;;;;;;;1.30;100.00;93094.59;2112916;28;20030;-85
2022/02/22 02:35:04;;;;;;;6.57;1.85;;;;;;;1.20;100.00;93095.22;2104942;28;20093;-85
2022/02/22 02:36:05;;;;;;;11.02;1.85;;;;;;;1.14;100.00;93100.03;2119441;27;20023;-84
2022/02/22 02:37:06;;;;;;;8.73;1.63;;;;;;;1.22;100.00;93095.59;2129251;27;20026;-86
2022/02/22 02:38:07;;;;;;;10.27;1.85;;;;;;;1.19;100.00;93097.09;2112916;28;20046;-85
2022/02/22 02:39:11;;;;;;;5.90;1.40;;;;;;;1.17;100.00;93094.03;2112931;27;20027;-84
2022/02/22 02:40:12;;;;;;;6.15;1.88;;;;;;;1.29;100.00;93110.75;2112963;28;20028;-84
2022/02/22 02:41:13;;;;;;;5.97;2.53;;;;;;;1.16;100.00;93099.66;2112900;28;20016;-84
2022/02/22 02:42:16;;;;;;;7.60;1.98;;;;;;;1.05;100.00;93107.41;2112591;28;20028;-84
2022/02/22 02:43:17;;;;;;;10.15;2.25;;;;;;;1.09;100.00;93096.94;2113519;27;20456;-84
2022/02/22 02:44:21;;;;;;;3.67;1.80;;;;;;;1.03;100.00;93109.66;2121371;27;20092;-85
2022/02/22 02:45:22;;;;;;;8.88;2.65;;;;;;;1.08;100.00;93113.84;2115435;28;20019;-84
2022/02/22 02:46:23;;;;;;;5.95;1.85;;;;;;;1.09;100.00;93104.81;2112945;27;20035;-85
2022/02/22 02:47:24;;;;;;;5.43;2.22;;;;;;;1.10;100.00;93101.84;2123423;27;20059;-85
2022/02/22 02:48:25;;;;;;;6.80;1.95;;;;;;;1.30;100.00;93109.63;2121207;27;20435;-84
2022/02/22 02:49:26;;;;;;;6.18;2.00;;;;;;;1.18;100.00;93106.09;2121170;27;20500;-84
2022/02/22 02:50:27;;;;;;;6.90;1.77;;;;;;;1.26;100.00;93107.69;2127733;27;20023;-85
2022/02/22 02:51:28;;;;;;;7.03;1.75;;;;;;;1.12;100.00;93112.78;2120986;28;20038;-85
2022/02/22 02:52:29;;;;;;;10.18;2.22;;;;;;;1.10;100.00;93104.50;2121253;28;20119;-85
2022/02/22 02:53:30;;;;;;;9.45;1.83;;;;;;;1.24;100.00;93109.19;2107735;28;20412;-84
2022/02/22 02:54:32;;;;;;;8.25;1.95;;;;;;;1.23;100.00;93110.31;2121211;27;20035;-84
2022/02/22 02:55:33;;;;;;;4.82;1.90;;;;;;;1.31;100.00;93119.03;2112743;27;20461;-84
2022/02/22 02:56:35;;;;;;;5.90;1.65;;;;;;;1.29;100.00;93118.66;2112792;27;20027;-84
2022/02/22 02:57:36;;;;;;;11.32;2.05;;;;;;;1.34;100.00;93113.81;2112772;28;20023;-83
2022/02/22 02:58:40;;;;;;;6.35;1.92;;;;;;;1.30;100.00;93117.53;2113273;28;20051;-84
2022/02/22 02:59:41;;;;;;;3.85;1.85;;;;;;;1.18;100.00;93121.88;2113245;27;20368;-84
2022/02/22 03:00:42;;;;;;;5.63;2.15;;;;;;;1.25;100.00;93123.84;2117136;28;20468;-84
2022/02/22 03:01:43;;;;;;;3.28;1.90;;;;;;;1.15;100.00;93127.88;2121082;27;20019;-83
2022/02/22 03:02:44;;;;;;;5.30;1.63;;;;;;;1.20;100.00;93130.19;2109160;28;20027;-84
2022/02/22 03:03:45;;;;;;;9.95;1.85;;;;;;;1.15;100.00;93125.25;2104221;28;20519;-83
2022/02/22 03:04:46;;;;;;;6.68;1.90;;;;;;;1.25;100.00;93127.25;2104184;28;20016;-84
2022/02/22 03:05:47;;;;;;;5.03;1.83;;;;;;;1.31;100.00;93125.06;2112387;28;20090;-83
2022/02/22 03:06:48;;;;;;;2.92;1.77;;;;;;;1.25;100.00;93127.25;2121005;28;20429;-85
2022/02/22 03:07:49;;;;;;;5.00;1.90;;;;;;;1.31;100.00;93132.19;2112657;28;20019;-85
2022/02/22 03:08:50;;;;;;;7.55;1.85;;;;;;;1.25;100.00;93131.75;2104091;28;20062;-85
2022/02/22 03:09:51;;;;;;;5.95;2.03;;;;;;;1.20;100.00;93129.44;2112585;28;20034;-83
2022/02/22 03:10:52;;;;;;;13.07;2.15;;;;;;;1.43;100.00;93129.34;2114394;28;20040;-84
2022/02/22 03:11:53;;;;;;;9.48;1.95;;;;;;;1.23;100.00;93128.72;2121093;27;20027;-83
2022/02/22 03:12:54;;;;;;;4.65;1.85;;;;;;;1.19;100.00;93135.81;2112559;28;20110;-84
2022/02/22 03:13:55;;;;;;;5.63;1.80;;;;;;;1.38;100.00;93140.97;2097853;28;20498;-84
2022/02/22 03:14:56;;;;;;;9.00;1.70;;;;;;;1.34;100.00;93155.94;2104206;28;20024;-84
2022/02/22 03:15:57;;;;;;;5.32;2.15;;;;;;;1.48;100.00;93140.31;2104526;28;20111;-84
2022/02/22 03:16:58;;;;;;;5.78;1.85;;;;;;;1.52;100.00;93154.31;2112458;28;20020;-84
2022/02/22 03:17:59;;;;;;;8.38;2.15;;;;;;;1.41;100.00;93153.41;2119523;27;20122;-84
2022/02/22 03:19:03;;;;;;;5.95;1.95;;;;;;;1.44;100.00;93159.84;2112433;28;20024;-84
2022/02/22 03:20:05;;;;;;;9.27;2.60;;;;;;;1.25;100.00;93150.19;2104941;28;20028;-83
2022/02/22 03:21:06;;;;;;;5.45;1.95;;;;;;;1.41;100.00;93161.31;2112147;28;20012;-84
2022/02/22 03:22:07;;;;;;;5.03;2.22;;;;;;;1.48;100.00;93166.66;2109848;28;20411;-84
2022/02/22 03:23:08;;;;;;;10.75;2.20;;;;;;;1.33;100.00;93158.94;2098170;28;20051;-84
2022/02/22 03:24:09;;;;;;;6.13;2.05;;;;;;;1.16;100.00;93160.22;2099084;28;20024;-83
2022/02/22 03:25:12;;;;;;;8.18;2.22;;;;;;;0.99;100.00;93150.94;2106733;28;20504;-84
2022/02/22 03:26:13;;;;;;;8.93;2.17;;;;;;;1.04;100.00;93163.78;2099055;28;20501;-84
2022/02/22 03:27:14;;;;;;;8.15;2.03;;;;;;;1.10;100.00;93172.13;2106882;28;20028;-84
2022/02/22 03:28:16;;;;;;;8.13;2.00;;;;;;;1.14;100.00;93168.47;2120404;27;20388;-84
2022/02/22 03:29:20;;;;;;;9.50;2.53;;;;;;;1.10;100.00;93164.25;2114915;28;20027;-84
2022/02/22 03:30:21;;;;;;;8.48;2.28;;;;;;;1.25;100.00;93160.72;2090383;28;20029;-84
2022/02/22 03:31:22;;;;;;;8.27;2.70;;;;;;;1.19;100.00;93172.69;2096076;28;20025;-85
2022/02/22 03:32:23;;;;;;;4.05;1.80;;;;;;;1.01;100.00;93172.41;2098273;28;20551;-84
2022/02/22 03:33:24;;;;;;;6.28;2.72;;;;;;;1.12;100.00;93177.81;2106968;28;20528;-84
2022/02/22 03:34:25;;;;;;;6.65;2.25;;;;;;;1.10;100.00;93164.25;2106816;28;20027;-84
2022/02/22 03:35:27;;;;;;;7.13;2.40;;;;;;;0.97;100.00;93174.25;2100280;28;20052;-84
2022/02/22 03:36:28;;;;;;;8.52;2.63;;;;;;;1.20;100.00;93174.19;2098389;28;20478;-84
2022/02/22 03:37:29;;;;;;;11.82;2.75;;;;;;;1.30;100.00;93170.19;2098474;28;20113;-85
2022/02/22 03:38:30;;;;;;;8.43;3.33;;;;;;;1.21;100.00;93171.19;2101554;28;20094;-84
2022/02/22 03:39:31;;;;;;;9.05;2.30;;;;;;;1.18;100.00;93176.41;2106685;28;20111;-83
2022/02/22 03:40:32;;;;;;;5.82;2.03;;;;;;;1.26;100.00;93181.41;2105016;28;20103;-84
2022/02/22 03:41:33;;;;;;;7.25;2.28;;;;;;;1.14;100.00;93183.47;2090014;28;20090;-85
2022/02/22 03:42:34;;;;;;;7.05;2.35;;;;;;;1.08;100.00;93182.28;2089934;28;20409;-85
2022/02/22 03:43:35;;;;;;;7.07;2.53;;;;;;;1.22;100.00;93188.50;2098313;28;20029;-84
2022/02/22 03:44:36;;;;;;;7.03;2.22;;;;;;;1.29;100.00;93198.38;2098631;28;20087;-82
2022/02/22 03:45:46;;;;;;;14.45;2.83;;;;;;;1.12;100.00;93199.63;2106677;28;20024;-84
2022/02/22 03:46:47;;;;;;;10.40;2.75;;;;;;;1.29;100.00;93205.53;2100532;28;20354;-84
2022/02/22 03:47:48;;;;;;;12.00;2.67;;;;;;;1.15;100.00;93200.81;2098415;28;20024;-83
2022/02/22 03:48:49;;;;;;;11.48;2.20;;;;;;;0.96;100.00;93201.63;2106586;28;20020;-83
2022/02/22 03:49:50;;;;;;;9.50;2.75;;;;;;;1.10;100.00;93196.63;2106785;28;20035;-83
2022/02/22 03:50:51;;;;;;;11.35;2.58;;;;;;;1.23;100.00;93200.56;2098056;28;20194;-83
2022/02/22 03:51:52;;;;;;;6.78;2.75;;;;;;;1.27;100.00;93205.88;2106592;28;20764;-83
2022/02/22 03:52:53;;;;;;;6.00;2.58;;;;;;;1.19;100.00;93202.38;2115094;28;20024;-85
2022/02/22 03:53:54;;;;;;;16.98;3.05;;;;;;;1.36;100.00;93206.41;2106695;28;20515;-84
2022/02/22 03:54:55;;;;;;;5.80;2.20;;;;;;;1.25;100.00;93208.88;2098284;28;20024;-84
2022/02/22 03:55:56;;;;;;;6.82;2.95;;;;;;;1.10;100.00;93215.03;2092185;28;20052;-83
2022/02/22 03:56:57;;;;;;;4.35;2.17;;;;;;;1.20;100.00;93203.16;2106484;28;20031;-83
2022/02/22 03:57:58;;;;;;;13.52;2.70;;;;;;;1.23;100.00;93212.97;2098102;28;20025;-83
2022/02/22 03:58:59;;;;;;;8.02;2.75;;;;;;;1.06;100.00;93206.34;2106375;28;20032;-84
2022/02/22 04:00:04;;;;;;;11.20;3.00;;;;;;;1.14;100.00;93209.81;2098371;28;20017;-83
2022/02/22 04:01:06;;;;;;;6.53;2.25;;;;;;;1.03;100.00;93214.16;2099247;28;20778;-85
2022/02/22 04:02:06;;;;;;;8.70;2.78;;;;;;;1.05;100.00;93215.31;2114876;28;20023;-83
2022/02/22 04:03:10;;;;;;;8.25;2.42;;;;;;;1.03;100.00;93208.91;2122279;27;20491;-84
2022/02/22 04:04:11;;;;;;;9.73;2.50;;;;;;;1.13;100.00;93216.19;2098500;28;20032;-84
2022/02/22 04:05:14;;;;;;;8.00;2.85;;;;;;;1.28;100.00;93211.91;2098139;28;20088;-83
2022/02/22 04:06:15;;;;;;;9.45;2.55;;;;;;;1.19;100.00;93201.63;2106531;28;20016;-84
2022/02/22 04:07:16;;;;;;;11.23;2.92;;;;;;;1.05;100.00;93212.69;2098199;28;20049;-84
2022/02/22 04:08:18;;;;;;;7.60;2.72;;;;;;;1.15;100.00;93209.47;2099554;28;20035;-84
2022/02/22 04:09:19;;;;;;;8.45;2.58;;;;;;;1.20;100.00;93211.03;2106839;28;20027;-84
2022/02/22 04:10:20;;;;;;;10.18;2.53;;;;;;;1.10;100.00;93214.25;2106680;28;20028;-84
2022/02/22 04:11:21;;;;;;;8.05;2.40;;;;;;;1.25;100.00;93218.63;2114495;27;20055;-84
2022/02/22 04:12:22;;;;;;;7.57;2.60;;;;;;;1.48;100.00;93221.22;2123347;27;20023;-85
2022/02/22 04:13:23;;;;;;;11.82;3.10;;;;;;;1.30;100.00;93215.69;2115004;28;20190;-83
2022/02/22 04:14:24;;;;;;;11.38;2.60;;;;;;;1.20;100.00;93218.94;2106667;28;20361;-84
2022/02/22 04:15:25;;;;;;;10.50;2.78;;;;;;;1.31;100.00;93219.09;2098215;28;20024;-85
2022/02/22 04:16:25;;;;;;;8.15;2.97;;;;;;;1.15;100.00;93220.00;2106404;28;20028;-84
2022/02/22 04:17:27;;;;;;;7.28;2.33;;;;;;;1.09;100.00;93220.63;2106373;28;20515;-84
2022/02/22 04:18:28;;;;;;;10.02;2.95;;;;;;;1.27;100.00;93232.19;2106605;28;20028;-84
2022/02/22 04:19:28;;;;;;;9.48;2.60;;;;;;;1.26;100.00;93228.06;2098187;28;20052;-83
2022/02/22 04:20:30;;;;;;;8.23;2.50;;;;;;;1.13;100.00;93224.84;2105885;28;20066;-83
2022/02/22 04:21:30;;;;;;;6.97;2.50;;;;;;;1.18;100.00;93234.31;2112131;28;20107;-84
2022/02/22 04:22:32;;;;;;;10.18;2.92;;;;;;;1.09;100.00;93233.81;2112777;27;20103;-83
2022/02/22 04:23:33;;;;;;;9.43;3.20;;;;;;;1.15;100.00;93238.44;2100023;28;20037;-85
2022/02/22 04:24:36;;;;;;;9.48;2.97;;;;;;;1.13;100.00;93239.88;2098015;28;20120;-83
2022/02/22 04:25:37;;;;;;;10.98;3.20;;;;;;;1.13;100.00;93245.16;2090227;28;20186;-84
2022/02/22 04:26:43;;;;;;;6.28;2.45;;;;;;;1.08;100.00;93242.81;2089639;28;20466;-84
2022/02/22 04:27:44;;;;;;;9.80;2.60;;;;;;;1.10;100.00;93238.72;2107323;28;20105;-84
2022/02/22 04:28:45;;;;;;;6.72;2.55;;;;;;;1.18;100.00;93240.34;2098039;28;20785;-83
2022/02/22 04:29:46;;;;;;;7.18;2.58;;;;;;;1.09;100.00;93236.44;2089785;28;20024;-84
2022/02/22 04:30:47;;;;;;;7.65;2.63;;;;;;;1.04;100.00;93236.72;2097825;28;20519;-84
2022/02/22 04:31:48;;;;;;;9.18;3.03;;;;;;;0.95;100.00;93245.63;2106231;28;20023;-85
2022/02/22 04:32:49;;;;;;;10.82;3.45;;;;;;;0.89;100.00;93241.78;2106368;28;20058;-83
2022/02/22 04:33:50;;;;;;;9.52;2.92;;;;;;;1.06;100.00;93243.19;2097575;28;20097;-85
2022/02/22 04:34:51;;;;;;;8.88;2.40;;;;;;;1.24;100.00;93240.81;2089149;28;20082;-83
2022/02/22 04:35:52;;;;;;;5.82;2.80;;;;;;;1.25;100.00;93229.94;2104136;28;20074;-84
2022/02/22 04:36:54;;;;;;;7.50;2.72;;;;;;;1.36;100.00;93237.22;2106039;28;20035;-83
2022/02/22 04:37:54;;;;;;;15.60;2.97;;;;;;;1.38;100.00;93241.03;2106262;28;20020;-84
2022/02/22 04:38:55;;;;;;;8.13;2.28;;;;;;;1.42;100.00;93246.34;2097823;28;20070;-84
2022/02/22 04:39:58;;;;;;;11.48;3.35;;;;;;;1.56;100.00;93237.88;2089467;28;20021;-84
2022/02/22 04:40:59;;;;;;;5.25;2.42;;;;;;;1.45;100.00;93238.50;2095214;28;21723;-84
2022/02/22 04:42:00;;;;;;;10.85;2.60;;;;;;;1.44;100.00;93236.97;2106281;28;20027;-84
2022/02/22 04:43:01;;;;;;;5.35;2.55;;;;;;;1.44;100.00;93239.59;2106116;28;20023;-83
2022/02/22 04:44:02;;;;;;;10.50;3.20;;;;;;;1.45;100.00;93248.28;2097934;28;20561;-84
2022/02/22 04:45:04;;;;;;;6.35;2.42;;;;;;;1.30;100.00;93249.16;2106353;28;20408;-83
2022/02/22 04:46:04;;;;;;;7.13;2.97;;;;;;;1.18;100.00;93253.50;2097940;28;20043;-85
2022/02/22 04:47:15;;;;;;;10.23;3.00;;;;;;;1.17;100.00;93240.69;2089465;28;20362;-84
2022/02/22 04:48:16;;;;;;;8.80;3.05;;;;;;;1.35;100.00;93247.00;2100396;28;20752;-83
2022/02/22 04:49:17;;;;;;;16.15;3.20;;;;;;;1.31;100.00;93246.16;2097711;28;20021;-83
2022/02/22 04:50:19;;;;;;;10.00;2.60;;;;;;;1.49;100.00;93249.84;2089507;28;20064;-84